Time;durP1;ratioP1;P1;durP2;ratioP2;P2;SDS_P1;SDS_P2;PMS_P1;PMS_P2;Temp;Humidity;BMP_temperature;BMP_pressure;BME280_temperature;BME280_humidity;BME280_pressure;Samples;Min_cycle;Max_cycle;Signal;HPM_P1;HPM_P2
2023/03/02 00:01:25;;;;;;;;;40.25;34.75;;;;;6.52;41.97;101532.94;4992221;28;47489;-67
2023/03/02 00:03:51;;;;;;;;;42.00;32.25;;;;;6.45;42.06;101529.94;5013993;28;45371;-67
2023/03/02 00:06:17;;;;;;;;;42.50;31.50;;;;;6.51;41.54;101539.97;5016231;28;45504;-67
2023/03/02 00:08:44;;;;;;;;;42.75;35.75;;;;;6.47;41.69;101540.63;5015143;28;45344;-68
2023/03/02 00:11:10;;;;;;;;;35.25;28.00;;;;;6.44;41.99;101544.03;5014146;28;46241;-67
2023/03/02 00:13:37;;;;;;;;;47.00;37.00;;;;;6.41;42.42;101540.28;5013819;28;45554;-67
2023/03/02 00:16:02;;;;;;;;;44.00;34.75;;;;;6.38;42.27;101541.00;5013854;28;45498;-67
2023/03/02 00:18:27;;;;;;;;;44.25;36.75;;;;;6.35;42.24;101531.97;5014186;28;45543;-66
2023/03/02 00:20:53;;;;;;;;;47.00;36.00;;;;;6.40;42.02;101541.09;5015807;28;57424;-68
2023/03/02 00:23:18;;;;;;;;;38.50;34.25;;;;;6.38;41.89;101537.47;5003114;28;45237;-69
2023/03/02 00:25:43;;;;;;;;;47.75;37.00;;;;;6.39;42.41;101544.59;5020217;28;46334;-68
2023/03/02 00:28:09;;;;;;;;;38.00;34.50;;;;;6.34;42.25;101541.69;5011067;28;45508;-66
2023/03/02 00:30:36;;;;;;;;;41.00;32.25;;;;;6.35;42.37;101542.59;5005789;28;61114;-66
2023/03/02 00:33:01;;;;;;;;;42.25;35.00;;;;;6.23;42.06;101527.78;5023963;28;45360;-66
2023/03/02 00:35:26;;;;;;;;;44.25;34.75;;;;;6.35;42.13;101547.91;5016502;28;45577;-67
2023/03/02 00:37:52;;;;;;;;;39.00;31.25;;;;;6.25;42.35;101527.88;5021356;28;45447;-66
2023/03/02 00:40:17;;;;;;;;;48.25;39.25;;;;;6.36;42.49;101542.69;5020310;28;45566;-66
2023/03/02 00:42:43;;;;;;;;;36.75;34.25;;;;;6.33;42.17;101544.25;5023401;28;45478;-67
2023/03/02 00:45:08;;;;;;;;;44.00;34.00;;;;;6.34;42.88;101540.78;5018660;28;45421;-65
2023/03/02 00:47:35;;;;;;;;;37.50;33.25;;;;;6.34;42.83;101546.09;5020699;28;45436;-65
2023/03/02 00:50:01;;;;;;;;;53.00;38.00;;;;;6.34;42.62;101541.69;5023474;28;46275;-66
2023/03/02 00:52:28;;;;;;;;;41.75;35.00;;;;;6.31;42.67;101540.59;5017701;28;45415;-66
2023/03/02 00:54:54;;;;;;;;;37.50;35.50;;;;;6.32;42.97;101542.41;5023071;28;45459;-69
2023/03/02 00:57:19;;;;;;;;;34.50;32.00;;;;;6.34;42.79;101546.09;5018341;28;45311;-67
2023/03/02 00:59:44;;;;;;;;;45.00;35.00;;;;;6.33;42.61;101554.88;5022278;28;48743;-67
2023/03/02 01:02:10;;;;;;;;;49.25;39.25;;;;;6.31;42.72;101545.91;5013622;28;45511;-66
2023/03/02 01:04:41;;;;;;;;;42.00;33.50;;;;;6.20;42.64;101539.97;5015905;28;45312;-68
2023/03/02 01:07:13;;;;;;;;;42.00;36.50;;;;;6.28;42.78;101550.19;5018183;28;45246;-66
2023/03/02 01:09:40;;;;;;;;;48.00;36.75;;;;;6.27;43.13;101547.47;5015358;28;45611;-67
2023/03/02 01:12:09;;;;;;;;;40.75;37.00;;;;;6.23;42.52;101550.78;5015360;28;46496;-69
2023/03/02 01:14:39;;;;;;;;;39.00;29.50;;;;;6.20;42.57;101548.88;5015056;28;46090;-66
2023/03/02 01:17:06;;;;;;;;;47.50;37.50;;;;;6.15;42.91;101546.78;5025063;28;45396;-66
2023/03/02 01:19:31;;;;;;;;;49.50;34.75;;;;;6.16;43.17;101554.81;5031272;28;45105;-69
2023/03/02 01:21:58;;;;;;;;;43.25;36.00;;;;;6.17;42.98;101548.69;5033194;28;45077;-67
2023/03/02 01:24:23;;;;;;;;;37.00;31.50;;;;;6.21;43.01;101552.44;5031273;28;45164;-67
2023/03/02 01:26:48;;;;;;;;;40.75;36.50;;;;;6.10;43.24;101538.53;5016358;28;45155;-70
2023/03/02 01:29:14;;;;;;;;;45.25;36.25;;;;;6.11;43.48;101545.69;5027193;28;63176;-67
2023/03/02 01:31:39;;;;;;;;;47.25;38.00;;;;;5.99;43.39;101537.94;5030945;28;54266;-70
2023/03/02 01:34:04;;;;;;;;;30.50;24.75;;;;;6.00;43.69;101533.53;5029975;28;45232;-71
2023/03/02 01:36:30;;;;;;;;;48.00;37.00;;;;;6.03;43.09;101547.88;5017799;28;46300;-67
2023/03/02 01:38:55;;;;;;;;;38.75;34.50;;;;;5.99;43.90;101539.66;5033529;28;46051;-66
2023/03/02 01:41:21;;;;;;;;;35.50;34.00;;;;;5.97;43.49;101541.31;5030889;28;45251;-66
2023/03/02 01:43:46;;;;;;;;;38.50;36.00;;;;;5.96;43.92;101534.16;5015199;28;45066;-67
2023/03/02 01:46:15;;;;;;;;;33.75;28.25;;;;;6.02;44.00;101527.50;5033628;28;45428;-65
2023/03/02 01:49:03;;;;;;;;;34.75;29.75;;;;;6.07;43.42;101533.06;5033098;28;45143;-66
2023/03/02 01:51:32;;;;;;;;;35.00;35.00;;;;;6.12;43.97;101533.31;5032532;28;45277;-65
2023/03/02 01:54:02;;;;;;;;;39.00;35.50;;;;;6.12;43.21;101523.66;5032216;28;45014;-66
2023/03/02 01:56:33;;;;;;;;;37.75;33.50;;;;;6.12;43.62;101523.66;5032213;28;45235;-66
2023/03/02 01:59:04;;;;;;;;;45.25;37.75;;;;;6.08;43.54;101530.50;5017461;28;46710;-68
2023/03/02 02:01:32;;;;;;;;;45.00;39.50;;;;;5.92;43.83;101503.88;5036076;28;45595;-68
2023/03/02 02:03:58;;;;;;;;;45.75;35.50;;;;;5.98;44.09;101522.84;5031093;28;44960;-68
2023/03/02 02:06:38;;;;;;;;;26.50;23.50;;;;;5.96;44.09;101519.19;5027564;28;45022;-69
2023/03/02 02:09:08;;;;;;;;;40.50;35.00;;;;;5.97;44.14;101520.09;5034279;28;45420;-69
2023/03/02 02:11:33;;;;;;;;;43.75;35.50;;;;;5.90;44.29;101508.19;5032509;28;45131;-67
2023/03/02 02:14:00;;;;;;;;;46.00;36.00;;;;;5.94;43.73;101518.16;5014261;28;45017;-68
2023/03/02 02:16:27;;;;;;;;;48.50;37.25;;;;;5.95;44.25;101519.97;5032287;28;45222;-71
2023/03/02 02:18:53;;;;;;;;;48.25;33.75;;;;;5.95;43.93;101517.31;5033390;28;45185;-67
2023/03/02 02:21:20;;;;;;;;;47.75;35.75;;;;;5.93;43.92;101511.03;5033980;28;45200;-71
2023/03/02 02:23:54;;;;;;;;;45.75;37.75;;;;;5.96;44.14;101523.56;5028461;28;45522;-68
2023/03/02 02:26:28;;;;;;;;;40.50;35.50;;;;;5.93;43.99;101511.03;5033111;28;45053;-68
2023/03/02 02:29:06;;;;;;;;;51.50;36.25;;;;;5.91;44.12;101518.00;5028269;28;45376;-69
2023/03/02 02:31:49;;;;;;;;;44.25;36.75;;;;;5.89;44.21;101514.34;5032638;28;45243;-69
2023/03/02 02:34:30;;;;;;;;;47.50;39.25;;;;;5.85;44.21;101514.97;5034279;28;44884;-67
2023/03/02 02:37:05;;;;;;;;;49.75;36.75;;;;;5.73;44.42;101492.22;5031857;28;44998;-67
2023/03/02 02:39:36;;;;;;;;;45.00;36.25;;;;;5.85;44.12;101496.41;5032990;28;45813;-72
2023/03/02 02:42:11;;;;;;;;;39.50;34.50;;;;;5.90;44.00;101501.13;5032104;28;45364;-70
2023/03/02 02:44:37;;;;;;;;;36.50;30.50;;;;;5.87;44.02;101501.00;5013637;28;45091;-69
2023/03/02 02:47:13;;;;;;;;;40.50;36.00;;;;;5.89;44.21;101496.69;5028839;28;45358;-69
2023/03/02 02:49:40;;;;;;;;;38.25;34.00;;;;;5.88;43.93;101502.81;5027118;28;46233;-70
2023/03/02 02:52:06;;;;;;;;;45.75;35.75;;;;;5.84;44.51;101492.84;5031307;28;45234;-70
2023/03/02 02:54:35;;;;;;;;;49.25;36.25;;;;;5.83;44.46;101492.78;5036532;28;45241;-72
2023/03/02 02:57:02;;;;;;;;;42.25;38.00;;;;;5.68;44.17;101461.88;5031793;28;44915;-70
2023/03/02 02:59:32;;;;;;;;;45.75;35.50;;;;;5.84;44.09;101499.88;5028721;28;45837;-69
2023/03/02 03:01:58;;;;;;;;;54.25;35.00;;;;;5.77;44.48;101492.41;5027348;28;45316;-70
2023/03/02 03:04:27;;;;;;;;;44.00;35.50;;;;;5.73;44.53;101484.28;5032752;28;45086;-68
2023/03/02 03:07:04;;;;;;;;;40.75;35.00;;;;;5.67;44.27;101477.69;5032143;28;45177;-66
2023/03/02 03:09:31;;;;;;;;;45.25;33.25;;;;;5.70;44.22;101486.75;5031575;28;45220;-67
2023/03/02 03:12:01;;;;;;;;;40.25;36.00;;;;;5.70;44.62;101491.13;5031830;28;44855;-68
2023/03/02 03:14:35;;;;;;;;;40.50;32.25;;;;;5.60;44.80;101479.09;5032186;28;45068;-69
2023/03/02 03:17:00;;;;;;;;;52.00;37.00;;;;;5.51;44.58;101457.34;5027730;28;45189;-69
2023/03/02 03:19:27;;;;;;;;;42.25;37.75;;;;;5.70;44.81;101500.00;5031366;28;45590;-68
2023/03/02 03:21:56;;;;;;;;;54.00;36.00;;;;;5.69;44.63;101497.25;5032285;28;45157;-67
2023/03/02 03:24:21;;;;;;;;;45.75;36.75;;;;;5.69;44.57;101497.25;5030135;28;45301;-70
2023/03/02 03:26:47;;;;;;;;;45.75;34.75;;;;;5.64;44.86;101490.78;5025590;28;45006;-72
2023/03/02 03:29:14;;;;;;;;;46.25;34.50;;;;;5.68;44.95;101495.44;5031363;28;45936;-69
2023/03/02 03:31:40;;;;;;;;;40.00;36.00;;;;;5.69;45.01;101495.53;5029855;28;45141;-70
2023/03/02 03:34:07;;;;;;;;;55.75;37.25;;;;;5.70;44.25;101494.69;5026053;28;45019;-70
2023/03/02 03:36:33;;;;;;;;;47.75;39.50;;;;;5.64;44.52;101483.75;5029436;28;45492;-68
2023/03/02 03:38:59;;;;;;;;;40.25;36.25;;;;;5.66;44.73;101494.41;5030305;28;45164;-68
2023/03/02 03:41:25;;;;;;;;;41.25;33.00;;;;;5.68;44.50;101487.50;5027472;28;45309;-68
2023/03/02 03:43:51;;;;;;;;;43.00;36.25;;;;;5.65;44.30;101493.50;5028171;28;45407;-69
2023/03/02 03:46:17;;;;;;;;;53.25;38.75;;;;;5.66;44.32;101492.72;5029829;28;45454;-69
2023/03/02 03:48:42;;;;;;;;;43.00;36.25;;;;;5.66;44.87;101487.41;5022747;28;45825;-70
2023/03/02 03:51:08;;;;;;;;;47.00;36.75;;;;;5.68;44.88;101496.34;5028582;28;45150;-68
2023/03/02 03:53:34;;;;;;;;;45.00;35.25;;;;;5.56;44.37;101470.84;5027370;28;44896;-72
2023/03/02 03:56:00;;;;;;;;;50.00;38.25;;;;;5.61;44.38;101470.31;5019307;28;45479;-71
2023/03/02 03:58:25;;;;;;;;;52.00;40.75;;;;;5.63;44.45;101488.97;5015582;28;45432;-71
2023/03/02 04:00:52;;;;;;;;;43.00;36.00;;;;;5.67;44.79;101498.91;5036492;28;45172;-72
2023/03/02 04:03:18;;;;;;;;;44.25;30.75;;;;;5.63;44.39;101494.28;5030407;28;45076;-71
2023/03/02 04:05:45;;;;;;;;;48.75;36.50;;;;;5.60;44.78;101499.38;5014900;28;45475;-69
2023/03/02 04:08:10;;;;;;;;;42.25;36.00;;;;;5.56;44.67;101495.66;5030654;28;45038;-69
2023/03/02 04:10:36;;;;;;;;;43.50;37.25;;;;;5.58;45.07;101498.41;5030323;28;45143;-66
2023/03/02 04:13:01;;;;;;;;;42.25;35.75;;;;;5.52;44.63;101486.56;5029454;28;45386;-66
2023/03/02 04:15:27;;;;;;;;;48.50;38.75;;;;;5.56;44.93;101490.34;5016876;28;45409;-65
2023/03/02 04:17:52;;;;;;;;;50.25;39.00;;;;;5.55;44.66;101493.81;5029981;28;45848;-68
2023/03/02 04:20:20;;;;;;;;;48.00;38.50;;;;;5.55;45.13;101504.41;5031307;28;45088;-69
2023/03/02 04:22:50;;;;;;;;;49.00;37.25;;;;;5.12;44.87;101433.91;5027277;28;45138;-66
2023/03/02 04:25:20;;;;;;;;;52.50;39.25;;;;;5.45;45.23;101502.06;5028545;28;45440;-66
2023/03/02 04:27:47;;;;;;;;;51.00;39.50;;;;;5.43;45.68;101507.25;5023739;28;45518;-68
2023/03/02 04:30:14;;;;;;;;;51.50;36.25;;;;;5.39;45.24;101496.38;5030264;28;45061;-66
2023/03/02 04:32:40;;;;;;;;;42.75;38.50;;;;;5.41;44.79;101502.69;5029438;28;44990;-68
2023/03/02 04:35:05;;;;;;;;;39.25;36.25;;;;;5.25;45.40;101477.03;5029493;28;45376;-68
2023/03/02 04:37:31;;;;;;;;;48.75;35.25;;;;;5.20;45.17;101482.03;5030142;28;45103;-66
2023/03/02 04:39:56;;;;;;;;;51.25;39.75;;;;;5.34;45.67;101510.25;5021871;28;45423;-67
2023/03/02 04:42:22;;;;;;;;;53.25;41.75;;;;;5.36;45.63;101510.34;5022152;28;45290;-67
2023/03/02 04:44:47;;;;;;;;;44.75;36.75;;;;;5.34;45.40;101509.34;5029377;28;45287;-66
2023/03/02 04:47:13;;;;;;;;;48.50;38.75;;;;;5.31;45.08;101507.44;5030101;28;45723;-67
2023/03/02 04:49:38;;;;;;;;;48.25;39.00;;;;;5.30;45.92;101513.56;5013704;28;45268;-70
2023/03/02 04:52:04;;;;;;;;;35.00;30.00;;;;;5.25;45.83;101504.44;5029703;28;45076;-69
2023/03/02 04:54:29;;;;;;;;;52.50;42.00;;;;;5.24;45.54;101501.69;5022326;28;45206;-66
2023/03/02 04:56:55;;;;;;;;;40.00;35.50;;;;;5.28;45.66;101512.56;5025040;28;45642;-66
2023/03/02 04:59:26;;;;;;;;;44.00;35.75;;;;;5.25;46.11;101511.47;5025978;28;45096;-66
2023/03/02 05:01:57;;;;;;;;;47.25;39.50;;;;;5.21;45.59;101504.16;5025913;28;45157;-69
2023/03/02 05:04:22;;;;;;;;;52.00;40.00;;;;;5.27;45.98;101515.13;5027950;28;45019;-70
2023/03/02 05:06:48;;;;;;;;;51.50;40.25;;;;;5.27;45.68;101513.38;5028534;28;45516;-67
2023/03/02 05:09:13;;;;;;;;;54.50;42.25;;;;;5.12;45.25;101489.53;5033215;28;45358;-70
2023/03/02 05:11:39;;;;;;;;;50.00;39.00;;;;;5.21;45.92;101510.34;5024745;28;45449;-69
2023/03/02 05:14:09;;;;;;;;;50.00;39.00;;;;;5.11;46.21;101497.38;5028862;28;45287;-71
2023/03/02 05:16:36;;;;;;;;;42.25;38.00;;;;;5.16;45.91;101506.50;5029661;28;46284;-68
2023/03/02 05:19:04;;;;;;;;;57.75;39.75;;;;;5.12;45.73;101507.16;5030133;28;45042;-68
2023/03/02 05:21:29;;;;;;;;;50.50;39.75;;;;;5.10;45.79;101501.78;5028875;28;45018;-70
2023/03/02 05:23:55;;;;;;;;;50.25;39.50;;;;;5.15;46.43;101512.66;5029620;28;45156;-69
2023/03/02 05:26:21;;;;;;;;;53.50;40.00;;;;;5.17;46.57;101511.00;5035307;28;45730;-69
2023/03/02 05:28:46;;;;;;;;;48.50;37.75;;;;;5.20;46.03;101505.88;5034009;28;45211;-70
2023/03/02 05:31:26;;;;;;;;;49.75;39.25;;;;;5.11;46.15;101484.13;5030663;28;45120;-68
2023/03/02 05:33:52;;;;;;;;;48.00;40.00;;;;;5.14;46.20;101495.81;5036743;28;45125;-72
2023/03/02 05:36:17;;;;;;;;;40.50;34.00;;;;;5.28;46.25;101506.31;5034109;28;45726;-68
2023/03/02 05:38:43;;;;;;;;;42.50;38.75;;;;;5.13;45.76;101494.00;5031897;28;45085;-69
2023/03/02 05:41:08;;;;;;;;;36.25;35.75;;;;;5.10;45.88;101484.97;5033306;28;45101;-66
2023/03/02 05:43:34;;;;;;;;;48.75;38.50;;;;;5.18;46.20;101507.53;5029132;28;45210;-67
2023/03/02 05:46:01;;;;;;;;;51.25;40.75;;;;;5.12;46.05;101496.56;5032697;28;45094;-71
2023/03/02 05:48:28;;;;;;;;;53.50;38.75;;;;;5.17;45.35;101518.94;5034672;28;45050;-68
2023/03/02 05:50:53;;;;;;;;;45.50;36.25;;;;;5.19;45.57;101516.38;5031571;28;45395;-67
2023/03/02 05:53:18;;;;;;;;;47.25;38.75;;;;;5.12;45.63;101504.50;5017771;28;45117;-66
2023/03/02 05:55:44;;;;;;;;;57.00;43.25;;;;;5.20;45.82;101518.19;5031961;28;45715;-69
2023/03/02 05:58:13;;;;;;;;;45.25;38.25;;;;;5.19;45.77;101513.75;5029738;28;51686;-68
2023/03/02 06:00:39;;;;;;;;;43.75;36.00;;;;;5.23;45.47;101527.28;5024427;28;45317;-66
2023/03/02 06:03:04;;;;;;;;;47.75;35.50;;;;;5.14;45.48;101505.50;5021549;28;45409;-65
2023/03/02 06:05:29;;;;;;;;;44.00;38.50;;;;;5.25;45.83;101524.72;5023733;28;45537;-68
2023/03/02 06:07:55;;;;;;;;;45.75;36.75;;;;;5.22;45.30;101532.47;5035397;28;63565;-66
2023/03/02 06:10:20;;;;;;;;;46.75;40.25;;;;;5.21;45.77;101539.47;5024299;28;45340;-70
2023/03/02 06:12:46;;;;;;;;;37.25;33.25;;;;;4.96;45.64;101505.31;5022054;28;45577;-67
2023/03/02 06:15:11;;;;;;;;;50.00;38.75;;;;;5.18;45.95;101547.28;5016920;28;46018;-66
2023/03/02 06:17:36;;;;;;;;;43.50;37.50;;;;;5.14;45.76;101540.84;5022841;28;45400;-69
2023/03/02 06:20:06;;;;;;;;;54.25;40.50;;;;;5.15;46.23;101547.97;5019219;28;45482;-69
2023/03/02 06:22:32;;;;;;;;;45.50;37.00;;;;;5.04;46.54;101524.31;5018100;28;45443;-69
2023/03/02 06:24:57;;;;;;;;;55.75;41.25;;;;;5.10;46.56;101545.88;5019105;28;45646;-70
2023/03/02 06:27:22;;;;;;;;;58.75;44.00;;;;;5.14;46.80;101548.78;5027379;28;48113;-72
2023/03/02 06:29:48;;;;;;;;;60.75;43.25;;;;;5.19;46.61;101549.09;5025508;28;45364;-69
2023/03/02 06:32:13;;;;;;;;;49.00;40.75;;;;;5.23;46.89;101555.47;5022463;28;45760;-71
2023/03/02 06:34:39;;;;;;;;;59.00;46.75;;;;;5.23;46.37;101544.88;5022460;28;45889;-69
2023/03/02 06:37:04;;;;;;;;;57.25;43.00;;;;;5.03;45.62;101523.38;5013543;28;45496;-70
2023/03/02 06:39:29;;;;;;;;;52.75;39.00;;;;;5.21;46.36;101547.44;5019767;28;45475;-70
2023/03/02 06:41:55;;;;;;;;;53.75;39.75;;;;;5.04;46.30;101526.97;5015504;28;45504;-71
2023/03/02 06:44:20;;;;;;;;;45.00;37.50;;;;;5.20;46.33;101558.88;5015374;28;45972;-70
2023/03/02 06:46:46;;;;;;;;;51.75;40.75;;;;;5.16;45.98;101562.13;5011495;28;45685;-67
2023/03/02 06:49:11;;;;;;;;;51.75;39.75;;;;;5.15;46.07;101552.38;5019687;28;45720;-69
2023/03/02 06:51:37;;;;;;;;;54.75;42.75;;;;;4.98;46.35;101536.38;5019504;28;45430;-66
2023/03/02 06:54:06;;;;;;;;;51.25;39.00;;;;;5.15;46.03;101557.69;5020623;28;45418;-68
2023/03/02 06:56:32;;;;;;;;;62.50;44.50;;;;;5.18;46.59;101565.81;5013237;28;45426;-65
2023/03/02 06:58:57;;;;;;;;;50.50;41.00;;;;;5.16;45.90;101559.47;5020187;28;45456;-68
2023/03/02 07:01:22;;;;;;;;;59.75;43.50;;;;;5.11;46.01;101555.66;5023027;28;45453;-66
2023/03/02 07:03:48;;;;;;;;;54.00;40.50;;;;;5.22;46.24;101566.91;5014517;28;46204;-65
2023/03/02 07:06:13;;;;;;;;;52.50;40.75;;;;;5.17;46.25;101553.38;5012692;28;45389;-66
2023/03/02 07:08:39;;;;;;;;;52.75;40.75;;;;;5.15;45.86;101552.38;4999467;28;45366;-65
2023/03/02 07:11:10;;;;;;;;;58.00;44.00;;;;;5.24;46.35;101570.56;5023152;28;45384;-68
2023/03/02 07:13:39;;;;;;;;;52.50;40.25;;;;;5.29;45.96;101570.00;5014004;28;47219;-65
2023/03/02 07:16:10;;;;;;;;;63.25;46.75;;;;;5.30;46.12;101571.84;5013038;28;45538;-64
2023/03/02 07:18:36;;;;;;;;;51.25;37.00;;;;;5.27;46.06;101562.81;5008079;28;45073;-67
2023/03/02 07:21:01;;;;;;;;;70.50;52.75;;;;;5.24;46.15;101547.63;5019689;28;45719;-66
2023/03/02 07:23:27;;;;;;;;;60.50;47.00;;;;;5.28;45.87;101552.31;5032188;28;45195;-69
2023/03/02 07:25:52;;;;;;;;;60.50;46.00;;;;;5.31;45.78;101559.50;5029822;28;45236;-66
2023/03/02 07:28:17;;;;;;;;;48.50;42.00;;;;;5.28;45.74;101562.91;5026275;28;45328;-68
2023/03/02 07:30:43;;;;;;;;;48.25;40.50;;;;;5.32;45.81;101564.00;5033297;28;45061;-67
2023/03/02 07:33:08;;;;;;;;;76.00;53.50;;;;;5.33;45.79;101558.78;5015900;28;45377;-68
2023/03/02 07:35:33;;;;;;;;;53.00;41.50;;;;;5.37;46.01;101553.69;5015797;28;45582;-77
2023/03/02 07:37:59;;;;;;;;;52.00;41.25;;;;;5.38;46.14;101559.06;5018953;28;45352;-78
2023/03/02 07:40:24;;;;;;;;;60.50;49.50;;;;;5.22;46.01;101535.13;5017930;28;45523;-75
2023/03/02 07:42:49;;;;;;;;;51.25;41.25;;;;;5.34;45.78;101554.41;5022201;28;45859;-71
2023/03/02 07:45:15;;;;;;;;;56.00;42.25;;;;;5.40;46.57;101553.88;5014845;28;45543;-68
2023/03/02 07:47:41;;;;;;;;;65.75;49.25;;;;;5.44;46.01;101567.38;5011491;28;45431;-73
2023/03/02 07:50:07;;;;;;;;;52.50;42.00;;;;;5.41;45.52;101553.03;5014447;28;45684;-69
2023/03/02 07:52:33;;;;;;;;;51.00;39.00;;;;;5.45;45.41;101563.00;4989887;28;46432;-63
2023/03/02 07:54:58;;;;;;;;;70.75;54.00;;;;;5.39;45.42;101558.22;5019814;28;45487;-72
2023/03/02 07:57:23;;;;;;;;;58.75;45.25;;;;;5.43;46.09;101559.31;5026806;28;46723;-65
2023/03/02 07:59:49;;;;;;;;;50.75;42.25;;;;;5.48;45.51;101560.53;5014440;28;45557;-65
2023/03/02 08:02:16;;;;;;;;;52.75;41.00;;;;;5.55;45.65;101557.44;4999036;28;47561;-68
2023/03/02 08:04:42;;;;;;;;;53.25;41.75;;;;;5.52;45.30;101552.84;5010774;28;45368;-65
2023/03/02 08:07:07;;;;;;;;;58.00;42.25;;;;;5.57;46.02;101562.81;5015997;28;45440;-65
2023/03/02 08:09:33;;;;;;;;;50.75;36.50;;;;;5.53;45.67;101556.44;5027149;28;45278;-73
2023/03/02 08:11:58;;;;;;;;;57.00;43.00;;;;;5.61;45.09;101567.47;5027337;28;45744;-65
2023/03/02 08:14:26;;;;;;;;;54.25;43.75;;;;;5.35;45.38;101527.09;5026152;28;45688;-66
2023/03/02 08:16:52;;;;;;;;;56.75;44.25;;;;;5.56;45.49;101566.28;5023765;28;45448;-68
2023/03/02 08:19:18;;;;;;;;;56.50;43.50;;;;;5.54;45.69;101577.72;5012986;28;45401;-65
2023/03/02 08:21:44;;;;;;;;;63.75;49.00;;;;;5.58;44.87;101570.88;5013358;28;46247;-68
2023/03/02 08:24:10;;;;;;;;;54.50;43.25;;;;;5.64;45.24;101573.88;4999990;28;52340;-68
2023/03/02 08:26:35;;;;;;;;;56.00;42.50;;;;;5.65;45.16;101567.75;5014618;28;45474;-66
2023/03/02 08:29:01;;;;;;;;;61.25;43.00;;;;;5.65;45.13;101567.75;5013056;28;45597;-66
2023/03/02 08:31:26;;;;;;;;;54.00;42.00;;;;;5.68;45.00;101573.22;4996760;28;47220;-71
2023/03/02 08:33:52;;;;;;;;;61.75;49.00;;;;;5.66;45.49;101558.97;5008479;28;45506;-67
2023/03/02 08:36:18;;;;;;;;;55.00;42.25;;;;;5.83;45.15;101574.97;5015035;28;45506;-67
2023/03/02 08:38:44;;;;;;;;;56.50;40.25;;;;;5.84;44.86;101567.09;5013984;28;45486;-65
2023/03/02 08:41:13;;;;;;;;;55.75;46.25;;;;;5.87;45.07;101556.69;5008417;28;45436;-66
2023/03/02 08:43:39;;;;;;;;;44.50;39.25;;;;;5.97;44.78;101562.53;5015524;28;45262;-67
2023/03/02 08:46:05;;;;;;;;;61.25;46.25;;;;;5.99;44.65;101561.81;5026067;28;45355;-65
2023/03/02 08:48:30;;;;;;;;;48.75;39.50;;;;;6.09;44.52;101557.97;5023287;28;45260;-68
2023/03/02 08:50:56;;;;;;;;;59.25;42.75;;;;;6.14;44.74;101553.81;5024755;28;47611;-65
2023/03/02 08:53:22;;;;;;;;;53.75;42.00;;;;;6.20;44.38;101553.25;5009821;28;45173;-68
2023/03/02 08:55:47;;;;;;;;;57.50;44.00;;;;;6.22;44.22;101543.63;5028777;28;45129;-71
2023/03/02 08:58:12;;;;;;;;;61.00;46.00;;;;;6.24;44.25;101550.88;5028835;28;45290;-68
2023/03/02 09:00:38;;;;;;;;;57.75;44.25;;;;;6.21;44.42;101541.81;5024536;28;45709;-68
2023/03/02 09:03:03;;;;;;;;;60.00;47.25;;;;;6.36;43.98;101558.59;5035738;28;45049;-67
2023/03/02 09:05:28;;;;;;;;;53.75;44.00;;;;;6.35;43.88;101539.94;5031258;28;45203;-65
2023/03/02 09:07:54;;;;;;;;;51.25;45.00;;;;;6.31;44.02;101524.69;5033300;28;45293;-65
2023/03/02 09:10:19;;;;;;;;;57.50;44.50;;;;;6.46;43.89;101549.41;5034108;28;45806;-66
2023/03/02 09:12:44;;;;;;;;;55.00;45.25;;;;;6.50;43.75;101531.91;5034738;28;45180;-64
2023/03/02 09:15:10;;;;;;;;;53.00;44.25;;;;;6.49;43.51;101532.75;5038900;28;54059;-65
2023/03/02 09:17:35;;;;;;;;;58.00;45.75;;;;;6.53;43.73;101542.69;5012585;28;45329;-65
2023/03/02 09:20:00;;;;;;;;;57.00;45.75;;;;;6.58;43.99;101535.91;5018545;28;45550;-66
2023/03/02 09:22:26;;;;;;;;;55.75;45.00;;;;;6.61;43.45;101539.63;5018993;28;45579;-65
2023/03/02 09:24:51;;;;;;;;;49.75;42.00;;;;;6.63;43.65;101537.06;5020079;28;45642;-64
2023/03/02 09:27:17;;;;;;;;;47.75;40.00;;;;;6.60;43.52;101534.22;5026701;28;45274;-70
2023/03/02 09:29:42;;;;;;;;;51.50;41.75;;;;;6.56;43.06;101530.50;5025833;28;45504;-65
2023/03/02 09:32:08;;;;;;;;;72.25;53.00;;;;;6.69;43.79;101547.13;5031609;28;45523;-65
2023/03/02 09:34:33;;;;;;;;;60.50;46.25;;;;;6.62;43.14;101524.63;5027839;28;45168;-65
2023/03/02 09:36:59;;;;;;;;;52.50;42.75;;;;;6.81;43.17;101554.03;5016772;28;45339;-65
2023/03/02 09:39:24;;;;;;;;;55.50;43.00;;;;;6.75;43.11;101515.59;5018052;28;46185;-64
2023/03/02 09:42:17;;;;;;;;;52.25;39.75;;;;;6.97;42.90;101531.84;5015808;28;45610;-70
2023/03/02 09:45:15;;;;;;;;;58.25;40.75;;;;;7.02;42.81;101521.47;5001259;28;45437;-64
2023/03/02 09:47:55;;;;;;;;;53.75;41.75;;;;;7.32;42.80;101534.53;5011297;28;45679;-64
2023/03/02 09:50:31;;;;;;;;;55.25;43.75;;;;;7.52;42.10;101530.25;5016849;28;45510;-65
2023/03/02 09:53:35;;;;;;;;;60.50;47.00;;;;;7.69;42.12;101536.44;4995781;28;45507;-67
2023/03/02 09:56:01;;;;;;;;;56.75;45.25;;;;;7.78;41.01;101541.31;4977929;28;45425;-67
2023/03/02 09:58:36;;;;;;;;;59.75;45.25;;;;;7.79;41.45;101533.41;5017467;28;45473;-70
2023/03/02 10:01:10;;;;;;;;;54.50;43.25;;;;;7.57;41.39;101491.50;5011606;28;46141;-70
2023/03/02 10:04:08;;;;;;;;;56.75;43.25;;;;;7.91;41.07;101530.44;5024632;28;45379;-69
2023/03/02 10:06:33;;;;;;;;;52.75;39.50;;;;;8.02;41.06;101545.19;5012951;28;45583;-69
2023/03/02 10:08:58;;;;;;;;;61.75;43.50;;;;;8.00;40.44;101537.97;5021780;28;45462;-68
2023/03/02 10:11:53;;;;;;;;;56.50;45.75;;;;;7.99;40.46;101550.38;5014929;28;45966;-71
2023/03/02 10:14:32;;;;;;;;;51.25;42.50;;;;;7.91;40.88;101528.69;5002004;28;45447;-69
2023/03/02 10:17:27;;;;;;;;;60.00;42.50;;;;;8.05;40.96;101540.03;5018963;28;45546;-68
2023/03/02 10:19:59;;;;;;;;;56.25;44.50;;;;;8.07;40.69;101518.81;5015662;28;45432;-65
2023/03/02 10:22:37;;;;;;;;;50.75;40.75;;;;;8.47;39.80;101528.75;5010362;28;45747;-68
2023/03/02 10:25:40;;;;;;;;;50.25;41.50;;;;;8.94;39.04;101526.47;4981700;28;45636;-70
2023/03/02 10:28:18;;;;;;;;;50.25;41.00;;;;;9.43;37.92;101519.75;5029030;28;45101;-65
2023/03/02 10:30:45;;;;;;;;;53.75;39.50;;;;;9.80;37.43;101521.28;5032516;28;45307;-69
2023/03/02 10:33:16;;;;;;;;;53.00;42.25;;;;;9.91;36.91;101523.56;5030811;28;45319;-65
2023/03/02 10:35:46;;;;;;;;;48.50;39.00;;;;;9.85;37.23;101515.31;5015691;28;45122;-67
2023/03/02 10:38:21;;;;;;;;;55.25;44.00;;;;;9.77;37.14;101515.00;5030432;28;45117;-66
2023/03/02 10:40:58;;;;;;;;;56.75;40.25;;;;;9.70;38.04;101520.94;5029672;28;45419;-63
2023/03/02 10:43:38;;;;;;;;;51.25;38.00;;;;;9.68;37.56;101513.69;5025170;28;46079;-65
2023/03/02 10:46:06;;;;;;;;;41.50;32.50;;;;;9.53;36.80;101497.94;5012017;28;45862;-66
2023/03/02 10:48:37;;;;;;;;;55.75;42.75;;;;;9.58;37.88;101512.38;5034187;28;45060;-64
2023/03/02 10:51:03;;;;;;;;;55.00;40.00;;;;;9.59;37.86;101506.22;5029527;28;45507;-64
2023/03/02 10:53:28;;;;;;;;;50.00;40.00;;;;;9.66;37.53;101510.06;5028843;28;45538;-71
2023/03/02 10:55:54;;;;;;;;;39.75;33.75;;;;;9.71;37.98;101498.72;5030580;28;45155;-65
2023/03/02 10:58:31;;;;;;;;;48.00;39.50;;;;;9.65;37.63;101494.88;5016811;28;45177;-68
2023/03/02 11:01:02;;;;;;;;;62.00;48.25;;;;;9.49;38.07;101464.91;5031843;28;45063;-65
2023/03/02 11:03:32;;;;;;;;;56.25;43.50;;;;;9.51;37.29;101459.63;5024604;28;45678;-65
2023/03/02 11:06:09;;;;;;;;;49.00;36.00;;;;;9.74;36.88;101496.19;5014759;28;46843;-63
2023/03/02 11:08:34;;;;;;;;;48.75;37.50;;;;;9.79;37.51;101496.38;5012500;28;45234;-65
2023/03/02 11:11:02;;;;;;;;;45.25;39.50;;;;;9.86;36.90;101492.19;5013864;28;45488;-67
2023/03/02 11:13:36;;;;;;;;;42.00;36.75;;;;;9.69;37.02;101444.38;5013264;28;46163;-66
2023/03/02 11:16:05;;;;;;;;;49.00;36.50;;;;;9.97;36.88;101496.22;5012811;28;45803;-72
2023/03/02 11:18:38;;;;;;;;;50.25;40.25;;;;;10.03;36.52;101496.50;5011111;28;45475;-71
2023/03/02 11:21:17;;;;;;;;;58.75;44.50;;;;;10.05;36.81;101489.44;5014234;28;45545;-66